Enter the Airport ICAO Code

Search by Airport or City

Current Weather

LEBB | Bilbao Airport

Bilbao, Basque Country, Spain

Last Update 12 Minutes Ago

Mist

Temperature of 11 ºC

Calm Wind

Temperature

11 ºC

Dew Point Temperature

10 ºC

Relative Humidity

93.58 %

Wind Direction

None

Wind Velocity

0 km/h (0 kt)

Gusts

None

Visibility

Reduced to 5.0 Kilometers

Sea Level Pressure

1031 hPa (Hectopascals)

Layers of Clouds

5% to 30% of Sky Covered from 335 mts (1100 ft) Above Ground Level.

60% to 90% of Sky Covered from 1128 mts (3700 ft) Above Ground Level.

METAR LEBB 270430Z 00000KT 5000 BR FEW011 BKN037 11/10 Q1031 NOSIG

Weather Forecast

LEBB | Bilbao Airport

Bilbao, Basque Country, Spain

Forecast valid for the next 19 Hours

From now on it is expected:

Mostly Cloudy Sky

Light Winds from Variable Directions

From now on it is expected 4 hours with intermittent periods of:

Light Drizzle

In 7 hours it is expected the begining of 7 hours with intermittent periods of:

Moderate Winds from North

Maximum Temperature

13 ºC in 10 Hours

Minimum Temperature

09 ºC in 19 Hours

TAF LEBB 262300Z 2700/2724 VRB04KT 9999 BKN015 TX13/2715Z TN09/2724Z PROB40 TEMPO 2700/2709 3000 -RADZ TEMPO 2712/2719 36010KT